Kuala Lumpur International Airport

WMKK | KUL

Kuala Lumpur , Malaysia

Friday, September 20th, 2019 | 03:36

Weather

WMKK 191900Z 13005KT 080V160 7000 FEW017CB SCT140 BKN280 27/22 Q1009 NOSIG

Charts

1 Available

Gates

271 Available

Runways

3 Available

Events

No events for this airport


New event